Pagrindinis puslapis
METAR-TAF:

METAR-TAF

Oro uostai :

Ki Vestas, Florida, Jungtinės Amerikos Valstijos

platuma: 24-33-13N, ilguma: 081-45-13W, Aukštis: 1 m

Dabartinis oras

Ataskaita buvo paskelbta 28 minutes, ne 20:53 UTC
Vėjas 9 kt iš Rytų/Pietryčių
Temperatūra 29°C
Drėgmė 74%
Slėgis 1017 hPa
Matomumas: 16.1 km
Mažai debesys ne aukštis 2500 ft
Išsisklaidę debesys ne aukštis 6000 ft

METAR: KEYW 262053Z 12009KT 10SM FEW025 SCT060 29/24 A3003 RMK AO2 SLP168 T02940239 58014 $

Laikas: 17:21 (21:21 UTC)

Prognozė

Ataskaita buvo paskelbta 3 valandos ir 47 minutes, ne 17:34 UTC
Prognozė galioja nuo 26 metu 18 UTC su 27 metu 12 UTC
Vėjas 12 kt iš Rytų/Pietryčių su gūsio iki 18 kt
Matomumas: 10 km
Išsisklaidę debesys ne aukštis 2500 ft
Liūtis kaimynystėje
Nuo 26 metu 2100 UTC
Vėjas 10 kt iš Pietryčių
Matomumas: 10 km
Išsisklaidę debesys ne aukštis 2500 ft

TAF: KEYW 261734Z 2618/2712 12012G18KT P6SM VCSH SCT025 FM262100 13010KT P6SM SCT025

Orai ataskaitas ir orų prognozės (METAR, TAF).

turimą stotys yra geltonos ir raudonos taškus žemėlapyje.

Perkelti pele per norėdami pamatyti stoties vardą.

Tada spustelėkite, norėdami matyti oro stebėjimo ir prognozės.

Norėdami pakeisti žemėlapį: spustelėkite ant žalios mygtukų su juodo kryžiaus žemyn,; žalią mygtuką su brūkšneliu, jei norite nutolinti; arba žalių rodyklių gretimoms žemėlapius.


METAR-TAF: